sim
Sign-in with your pilot id or email,
or register
Callsign
Passwort

Schedule Details

Flight Number: RYR6446 (1)
Departure: Brussels South Charleroi Airport (EBCI) at 14:55
Arrival: Thessaloniki International Airport (LGTS) at 17:40
Route: Ryanair Passenger Schedule. Enter filed route here before submitting Pirep.

Weather Information
Getting current METAR information for EBCI 172220Z 23005KT 8000 -RADZ SCT004 BKN008 15/14 Q1009 TEMPO 2000 RADZ SCT003 BKN005
Getting current METAR information for LGTS 172220Z VRB03KT 9999 FEW025 21/16 Q1015 NOSIG

Schedule Frequency

Route Map